Alpha, KY

11:45 PM CST on January 26, 2015 (GMT -0600)
Balcony Bend | Change Station
CLOSE
Current Station
Personal Weather Station
Location: Jamestown, KY
Elevation: 817 ft
Nearby Weather Stations
Active Advisory: Special Statement

Elev 817 ft 36.97 °N, 85.06 °W | Updated 12 seconds ago

Overcast
Overcast
30.1 °F
Feels Like 30 °F
N
0.0
Wind Variable Wind from WSW
Gusts 0.0 mph

Today
High -- | Low -- °F
--% Chance of Precip.
Yesterday
High -- | Low -- °F
Precip. -- in
6:46 AM 4:59 PM
Waxing Crescent, 50% visible
Pressure 29.94 in
Visibility 7.0 miles
Clouds Scattered Clouds 1500 ft
Overcast 3300 ft
Windchill 30 °F
Dew Point 28 °F
Humidity 93%
Rainfall -999.00 in
Snow Depth Not available.
UV 0 out of 12
Pollen .10 out of 12
Air Quality Not available.
Flu Activity Not available.
METAR KSME 270535Z AUTO 26004KT 7SM SCT015 OVC033 M01/M02 A2994 RMK AO2

More Conditions Fewer Conditions

Pressure 29.94 in
Visibility 7.0 miles
Clouds Scattered Clouds 1500 ft
Overcast 3300 ft
Windchill 30 °F
Dew Point 28 °F
Humidity 93%
Rainfall -999.00 in
Snow Depth Not available.
UV 0 out of 12
Pollen .10 out of 12
Air Quality Not available.
Flu Activity Not available.
METAR KSME 270535Z AUTO 26004KT 7SM SCT015 OVC033 M01/M02 A2994 RMK AO2

More Conditions Fewer Conditions

10-Day Weather Forecast

Almanac

Astronomy

Jan. 26, 2015 Rise Set
Actual Time
Civil Twilight
Nautical Twilight
Astronomical Twilight
Moon
Length of Visible Light
Length of Day
Tomorrow will be .
, % of the Moon is Illuminated

Today's Extremes

State Highs State Lows

Community

WunderPhotos

Upload Photos

1,790,536 photos uploaded!

WunderBlogs® & News

Nearby

Air Quality

  Air Quality AQ Index Pollutant
Not available.

Snow Depth

Station Depth Elevation

Earthquake Activity

City Distance Mag. Time & Date
Minimum magnitude displayed is 2.5.

Coastal Water Temperatures

Place Temperature

Nearby Weather Stations